Time;durP1;ratioP1;P1;durP2;ratioP2;P2;SDS_P1;SDS_P2;PMS_P1;PMS_P2;Temp;Humidity;BMP_temperature;BMP_pressure;BME280_temperature;BME280_humidity;BME280_pressure;Samples;Min_cycle;Max_cycle;Signal;HPM_P1;HPM_P2
2021/12/11 00:02:25;;;;;;;0.67;0.67;;;4.30;81.80;3.50;96868.00;;;;5115337;28;20330;-72
2021/12/11 00:04:57;;;;;;;0.63;0.63;;;4.30;82.20;3.50;96875.00;;;;5097490;28;20292;-72
2021/12/11 00:07:31;;;;;;;0.60;0.60;;;4.30;82.30;3.40;96880.00;;;;5115342;28;20205;-72
2021/12/11 00:10:11;;;;;;;0.97;0.80;;;4.20;81.80;3.20;96882.00;;;;5115042;28;20205;-71
2021/12/11 00:12:45;;;;;;;0.60;0.60;;;4.10;81.60;3.20;96884.00;;;;5115098;28;20318;-71
2021/12/11 00:15:16;;;;;;;0.60;0.60;;;4.10;82.20;3.00;96893.00;;;;5115180;28;20193;-72
2021/12/11 00:17:46;;;;;;;0.90;0.90;;;3.90;82.70;2.80;96901.00;;;;5115040;28;20222;-71
2021/12/11 00:20:25;;;;;;;0.60;0.60;;;3.70;82.00;2.80;96894.00;;;;5115272;28;20235;-71
2021/12/11 00:22:55;;;;;;;0.60;0.60;;;3.60;83.20;2.70;96907.00;;;;5114978;28;20217;-72
2021/12/11 00:25:22;;;;;;;0.70;0.70;;;3.60;82.60;2.70;96906.00;;;;5114887;28;20229;-71
2021/12/11 00:27:53;;;;;;;0.70;0.70;;;3.50;83.70;2.50;96889.00;;;;5115023;28;20605;-71
2021/12/11 00:30:25;;;;;;;0.60;0.60;;;3.40;83.00;2.60;96920.00;;;;5114967;28;20190;-72
2021/12/11 00:33:01;;;;;;;0.60;0.60;;;3.40;83.10;2.60;96923.00;;;;5114848;28;20229;-71
2021/12/11 00:35:29;;;;;;;0.60;0.60;;;3.40;83.30;2.60;96930.00;;;;5114900;28;20645;-72
2021/12/11 00:38:04;;;;;;;0.60;0.60;;;3.40;82.90;2.50;96941.00;;;;5096628;28;20319;-72
2021/12/11 00:40:32;;;;;;;0.70;0.70;;;3.30;83.00;2.20;96946.00;;;;5114762;28;20219;-72
2021/12/11 00:43:05;;;;;;;0.60;0.60;;;3.20;83.40;2.20;96943.00;;;;5114751;28;20197;-72
2021/12/11 00:45:36;;;;;;;0.50;0.50;;;3.10;83.50;2.30;96953.00;;;;5114558;28;20640;-71
2021/12/11 00:48:09;;;;;;;0.60;0.60;;;3.20;84.00;2.40;96953.00;;;;5114710;28;20206;-71
2021/12/11 00:50:42;;;;;;;0.50;0.50;;;3.20;84.90;2.10;96955.00;;;;5114658;28;20279;-72
2021/12/11 00:53:19;;;;;;;0.80;0.80;;;3.10;83.20;2.10;96963.00;;;;5114606;28;20201;-71
2021/12/11 00:55:51;;;;;;;0.60;0.60;;;3.00;84.60;2.20;96964.00;;;;5114573;28;20264;-71
2021/12/11 00:58:24;;;;;;;0.60;0.60;;;3.00;84.60;2.10;96964.00;;;;5096370;28;20317;-71
2021/12/11 01:00:56;;;;;;;0.73;0.73;;;3.00;85.10;2.00;96963.00;;;;5114583;28;20258;-71
2021/12/11 01:03:36;;;;;;;0.50;0.50;;;2.90;84.50;1.90;96975.00;;;;5114517;28;20281;-72
2021/12/11 01:06:14;;;;;;;0.77;0.77;;;2.80;85.10;1.90;96990.00;;;;5114392;28;20218;-71
2021/12/11 01:08:47;;;;;;;0.90;0.90;;;2.80;86.10;1.80;96987.00;;;;5114395;28;20211;-72
2021/12/11 01:11:20;;;;;;;0.60;0.60;;;2.70;86.00;1.80;96996.00;;;;5114201;28;20286;-69
2021/12/11 01:13:51;;;;;;;0.90;0.90;;;2.80;86.60;1.90;97002.00;;;;5114252;28;20227;-71
2021/12/11 01:16:20;;;;;;;0.67;0.67;;;2.80;86.00;1.80;97017.00;;;;5096268;28;20647;-71
2021/12/11 01:18:57;;;;;;;0.60;0.60;;;2.70;87.00;1.80;97018.00;;;;5096328;28;20297;-71
2021/12/11 01:21:34;;;;;;;0.60;0.60;;;2.70;86.70;1.90;97022.00;;;;5114261;28;20271;-71
2021/12/11 01:24:12;;;;;;;0.60;0.60;;;2.70;87.00;2.00;97025.00;;;;5116820;28;20204;-71
2021/12/11 01:26:46;;;;;;;0.70;0.70;;;2.70;87.20;1.90;97028.00;;;;5117800;28;20211;-71
2021/12/11 01:29:16;;;;;;;0.90;0.90;;;2.90;86.40;2.00;97038.00;;;;5117723;28;20282;-71
2021/12/11 01:31:46;;;;;;;0.60;0.60;;;2.80;85.80;1.90;97041.00;;;;5117783;28;20304;-71
2021/12/11 01:34:13;;;;;;;0.73;0.73;;;2.80;85.80;1.70;97042.00;;;;5117732;28;20300;-71
2021/12/11 01:36:40;;;;;;;0.60;0.60;;;2.70;86.60;1.70;97051.00;;;;5099661;28;20258;-71
2021/12/11 01:39:13;;;;;;;0.90;0.90;;;2.60;86.90;1.90;97058.00;;;;5117556;28;20280;-71
2021/12/11 01:41:42;;;;;;;0.63;0.63;;;2.60;87.50;1.90;97060.00;;;;5117630;28;20211;-71
2021/12/11 01:44:13;;;;;;;0.70;0.70;;;2.80;87.40;2.00;97076.00;;;;5099611;28;20658;-71
2021/12/11 01:46:42;;;;;;;0.70;0.70;;;2.80;87.40;2.10;97085.00;;;;5117475;28;20276;-71
2021/12/11 01:49:15;;;;;;;0.70;0.70;;;2.90;86.90;2.10;97091.00;;;;5117426;28;20201;-71
2021/12/11 01:51:48;;;;;;;0.60;0.60;;;2.90;86.90;2.00;97089.00;;;;5099405;28;20702;-71
2021/12/11 01:54:20;;;;;;;0.50;0.50;;;2.90;86.10;2.10;97094.00;;;;5117315;28;20232;-71
2021/12/11 01:56:58;;;;;;;0.70;0.70;;;2.90;86.00;2.10;97096.00;;;;5117148;28;20656;-71
2021/12/11 01:59:32;;;;;;;0.57;0.57;;;2.90;86.30;1.90;97104.00;;;;5117163;28;20273;-71
2021/12/11 02:02:06;;;;;;;0.60;0.60;;;2.80;85.70;2.10;97117.00;;;;5117265;28;20204;-71
2021/12/11 02:04:38;;;;;;;0.50;0.50;;;2.80;86.60;2.00;97109.00;;;;5117150;28;20243;-71
2021/12/11 02:07:10;;;;;;;0.70;0.70;;;2.80;85.50;1.80;97123.00;;;;5117200;28;20283;-71
2021/12/11 02:09:44;;;;;;;0.70;0.70;;;2.70;86.30;1.90;97122.00;;;;5117138;28;20636;-71
2021/12/11 02:12:19;;;;;;;0.60;0.60;;;2.80;86.40;1.80;97124.00;;;;5117072;28;20235;-72
2021/12/11 02:14:50;;;;;;;0.80;0.77;;;2.80;86.20;1.90;97126.00;;;;5117181;28;20238;-71
2021/12/11 02:17:23;;;;;;;0.70;0.70;;;2.80;86.40;2.00;97135.00;;;;5116989;28;20209;-74
2021/12/11 02:19:52;;;;;;;0.50;0.50;;;2.80;86.10;1.90;97144.00;;;;5117084;28;20279;-72
2021/12/11 02:22:26;;;;;;;0.60;0.60;;;2.80;86.60;2.00;97151.00;;;;5117153;28;20250;-72
2021/12/11 02:25:00;;;;;;;0.50;0.50;;;2.80;86.40;2.00;97159.00;;;;5099010;28;20732;-72
2021/12/11 02:27:35;;;;;;;0.60;0.60;;;2.80;86.10;1.90;97154.00;;;;5116990;28;20197;-71
2021/12/11 02:30:18;;;;;;;0.60;0.60;;;2.70;86.70;1.80;97166.00;;;;5117093;28;20224;-72
2021/12/11 02:32:56;;;;;;;0.63;0.63;;;2.70;86.90;1.90;97160.00;;;;5098978;28;20193;-72
2021/12/11 02:35:37;;;;;;;0.60;0.60;;;2.80;87.00;1.80;97167.00;;;;5116712;28;20208;-72
2021/12/11 02:38:16;;;;;;;0.50;0.50;;;2.70;87.00;2.00;97182.00;;;;5098696;28;20264;-71
2021/12/11 02:40:48;;;;;;;0.63;0.63;;;2.80;87.80;2.00;97180.00;;;;5116742;28;20251;-71
2021/12/11 02:43:23;;;;;;;0.70;0.70;;;2.80;86.50;1.90;97187.00;;;;5116627;28;20225;-71
2021/12/11 02:45:58;;;;;;;1.20;1.13;;;2.80;86.60;2.10;97188.00;;;;5116509;28;20228;-71
2021/12/11 02:48:31;;;;;;;0.50;0.50;;;2.80;87.00;1.90;97193.00;;;;5116503;28;20300;-70
2021/12/11 02:51:09;;;;;;;0.50;0.50;;;2.80;86.60;1.90;97200.00;;;;5116347;28;20216;-71
2021/12/11 02:53:44;;;;;;;0.80;0.80;;;2.80;86.40;1.90;97206.00;;;;5116430;28;20341;-71
2021/12/11 02:56:17;;;;;;;0.60;0.60;;;2.70;87.00;2.00;97198.00;;;;5098639;28;20288;-71
2021/12/11 02:58:52;;;;;;;0.97;0.97;;;2.80;87.00;2.10;97207.00;;;;5116141;28;20816;-72
2021/12/11 03:01:28;;;;;;;0.60;0.60;;;2.80;87.10;1.80;97207.00;;;;5116767;28;20672;-71
2021/12/11 03:04:09;;;;;;;0.53;0.53;;;2.70;87.20;2.00;97212.00;;;;5116198;28;20351;-71
2021/12/11 03:06:40;;;;;;;0.70;0.70;;;2.80;87.50;1.90;97220.00;;;;5098271;28;20209;-71
2021/12/11 03:09:10;;;;;;;0.90;0.90;;;2.80;87.00;2.00;97226.00;;;;5098219;28;20272;-71
2021/12/11 03:11:38;;;;;;;0.77;0.77;;;2.90;86.30;2.00;97231.00;;;;5116104;28;20225;-71
2021/12/11 03:14:08;;;;;;;0.70;0.70;;;2.90;86.10;1.90;97238.00;;;;5116125;28;20285;-71
2021/12/11 03:16:36;;;;;;;0.90;0.90;;;2.80;86.90;2.00;97244.00;;;;5115974;28;20239;-71
2021/12/11 03:19:08;;;;;;;0.70;0.70;;;2.80;87.20;1.90;97240.00;;;;5115928;28;20280;-71
2021/12/11 03:21:35;;;;;;;0.83;0.80;;;2.70;87.00;2.00;97246.00;;;;5115998;28;20276;-71
2021/12/11 03:24:08;;;;;;;0.60;0.60;;;2.80;86.70;2.10;97259.00;;;;5115933;28;20269;-71
2021/12/11 03:26:39;;;;;;;0.53;0.53;;;2.90;87.30;2.00;97258.00;;;;5115902;28;20226;-71
2021/12/11 03:29:07;;;;;;;0.57;0.57;;;2.90;86.10;1.90;97262.00;;;;5097993;28;20525;-71
2021/12/11 03:31:36;;;;;;;0.60;0.60;;;2.80;86.00;2.00;97274.00;;;;5097861;28;20224;-71
2021/12/11 03:34:06;;;;;;;0.60;0.60;;;2.90;86.60;1.90;97283.00;;;;5097942;28;20232;-71
2021/12/11 03:36:36;;;;;;;0.70;0.70;;;2.80;86.50;1.90;97283.00;;;;5115807;28;20587;-71
2021/12/11 03:39:11;;;;;;;0.50;0.50;;;2.80;86.90;1.90;97303.00;;;;5115696;28;20276;-71
2021/12/11 03:41:42;;;;;;;1.97;1.60;;;2.80;87.20;2.10;97297.00;;;;5115826;28;20653;-71
2021/12/11 03:44:11;;;;;;;2.57;1.17;;;2.80;87.60;2.20;97305.00;;;;5115518;28;20220;-71
2021/12/11 03:46:39;;;;;;;0.90;0.90;;;2.90;87.20;2.10;97317.00;;;;5114794;28;20260;-71
2021/12/11 03:49:12;;;;;;;0.67;0.67;;;3.00;86.70;2.20;97328.00;;;;5115546;28;20293;-71
2021/12/11 03:51:49;;;;;;;0.63;0.63;;;3.00;86.60;2.10;97326.00;;;;5115420;28;20271;-71
2021/12/11 03:54:22;;;;;;;0.63;0.63;;;3.00;86.00;2.10;97334.00;;;;5115439;28;20277;-71
2021/12/11 03:56:50;;;;;;;1.03;1.03;;;3.00;86.90;2.00;97344.00;;;;5115361;28;20540;-71
2021/12/11 03:59:17;;;;;;;0.87;0.87;;;2.90;86.80;2.10;97341.00;;;;5115277;28;20229;-71
2021/12/11 04:01:58;;;;;;;0.87;0.87;;;3.00;87.00;2.10;97343.00;;;;5097404;28;20511;-70
2021/12/11 04:04:32;;;;;;;0.90;0.90;;;2.90;87.10;2.00;97351.00;;;;5115326;28;20228;-71
2021/12/11 04:07:02;;;;;;;0.50;0.50;;;2.90;87.10;2.10;97354.00;;;;5115396;28;20216;-71
2021/12/11 04:09:33;;;;;;;0.90;0.90;;;2.90;87.40;2.20;97355.00;;;;5115201;28;20285;-71
2021/12/11 04:12:05;;;;;;;0.87;0.87;;;3.00;87.60;2.20;97355.00;;;;5115125;28;20216;-71
2021/12/11 04:14:36;;;;;;;1.43;1.33;;;3.10;87.00;2.30;97361.00;;;;5097634;28;20291;-71
2021/12/11 04:17:05;;;;;;;0.90;0.90;;;3.10;86.90;2.10;97370.00;;;;5114940;28;20221;-71
2021/12/11 04:19:35;;;;;;;0.60;0.60;;;3.00;86.10;2.10;97375.00;;;;5097341;28;20609;-71
2021/12/11 04:22:04;;;;;;;1.33;1.27;;;3.00;86.50;2.20;97376.00;;;;5097184;28;20310;-71
2021/12/11 04:24:34;;;;;;;0.70;0.70;;;3.00;86.60;2.10;97390.00;;;;5114859;28;20655;-70
2021/12/11 04:27:06;;;;;;;0.60;0.60;;;3.00;87.40;2.10;97388.00;;;;5115016;28;20554;-71
2021/12/11 04:29:33;;;;;;;0.73;0.73;;;3.00;86.70;2.20;97396.00;;;;5114921;28;20262;-71
2021/12/11 04:32:02;;;;;;;0.77;0.77;;;3.00;86.50;2.10;97407.00;;;;5096841;28;20233;-70
2021/12/11 04:34:32;;;;;;;0.83;0.83;;;3.10;86.70;2.10;97400.00;;;;5097249;28;20239;-71
2021/12/11 04:37:10;;;;;;;1.00;1.00;;;3.00;86.70;2.20;97406.00;;;;5096775;28;20315;-71
2021/12/11 04:39:40;;;;;;;1.13;1.00;;;3.10;86.20;2.20;97423.00;;;;5114801;28;20616;-71
2021/12/11 04:42:17;;;;;;;0.83;0.83;;;3.00;86.30;2.30;97424.00;;;;5114828;28;20204;-71
2021/12/11 04:44:46;;;;;;;0.70;0.70;;;3.10;86.30;2.10;97423.00;;;;5114711;28;20223;-71
2021/12/11 04:47:31;;;;;;;0.63;0.63;;;3.00;86.10;2.30;97434.00;;;;5114744;28;20194;-70
2021/12/11 04:50:05;;;;;;;0.70;0.70;;;3.00;86.40;2.10;97430.00;;;;5114736;28;20284;-70
2021/12/11 04:52:45;;;;;;;1.30;1.30;;;2.90;86.50;2.10;97410.00;;;;5114894;28;20181;-71
2021/12/11 04:55:26;;;;;;;1.13;1.13;;;3.00;86.50;2.20;97445.00;;;;5114606;28;20197;-71
2021/12/11 04:58:10;;;;;;;0.93;0.93;;;3.00;87.50;2.10;97415.00;;;;5114373;28;20311;-71
2021/12/11 05:00:53;;;;;;;0.90;0.90;;;3.00;86.90;2.30;97451.00;;;;5114635;28;20208;-71
2021/12/11 05:06:29;;;;;;;0.80;0.80;;;3.10;86.60;2.10;97463.00;;;;5114407;28;20535;-71
2021/12/11 05:09:16;;;;;;;0.67;0.67;;;3.00;86.40;2.10;97464.00;;;;5114399;28;20213;-70
2021/12/11 05:11:53;;;;;;;0.80;0.80;;;3.00;86.70;2.30;97478.00;;;;5114346;28;20243;-71
2021/12/11 05:14:25;;;;;;;1.47;1.23;;;3.00;86.50;2.20;97480.00;;;;5114374;28;20258;-72
2021/12/11 05:16:54;;;;;;;0.80;0.80;;;3.10;86.00;2.20;97479.00;;;;5114168;28;20221;-73
2021/12/11 05:19:21;;;;;;;0.83;0.83;;;3.10;86.40;2.10;97482.00;;;;5096725;28;20301;-70
2021/12/11 05:21:50;;;;;;;0.80;0.80;;;3.00;85.60;2.10;97502.00;;;;5114354;28;20258;-71
2021/12/11 05:24:20;;;;;;;0.80;0.80;;;2.90;86.20;2.10;97500.00;;;;5114152;28;20304;-71
2021/12/11 05:26:47;;;;;;;0.83;0.83;;;3.00;86.40;2.20;97510.00;;;;5114234;28;20202;-71
2021/12/11 05:29:17;;;;;;;1.23;1.23;;;3.00;86.50;2.20;97512.00;;;;5096472;28;20205;-71
2021/12/11 05:31:44;;;;;;;1.23;1.23;;;3.00;86.30;2.20;97498.00;;;;5114356;28;20235;-70
2021/12/11 05:34:11;;;;;;;1.00;1.00;;;3.00;86.40;2.00;97533.00;;;;5114111;28;20304;-70
2021/12/11 05:36:39;;;;;;;1.20;1.20;;;3.00;85.80;2.10;97528.00;;;;5113920;28;20232;-69
2021/12/11 05:39:18;;;;;;;9.90;1.27;;;2.90;86.30;2.30;97541.00;;;;5114076;28;20202;-71
2021/12/11 05:41:48;;;;;;;0.70;0.70;;;3.10;86.40;2.10;97554.00;;;;5096195;28;20319;-71
2021/12/11 05:44:16;;;;;;;0.80;0.80;;;3.00;86.60;2.00;97549.00;;;;5096051;28;20306;-73
2021/12/11 05:46:43;;;;;;;0.93;0.93;;;2.90;86.40;2.00;97545.00;;;;5113918;28;20206;-71
2021/12/11 05:49:10;;;;;;;0.90;0.90;;;3.00;86.30;2.00;97553.00;;;;5113883;28;20277;-70
2021/12/11 05:51:45;;;;;;;0.80;0.80;;;2.90;86.10;1.90;97559.00;;;;5113866;28;20300;-70
2021/12/11 05:54:16;;;;;;;0.70;0.70;;;2.90;86.50;2.00;97571.00;;;;5113914;28;20201;-71
2021/12/11 05:56:44;;;;;;;0.93;0.93;;;2.90;87.00;2.10;97575.00;;;;5095754;28;20212;-71
2021/12/11 05:59:16;;;;;;;1.07;1.07;;;2.90;86.70;2.10;97585.00;;;;5113827;28;20288;-71
2021/12/11 06:01:46;;;;;;;1.30;1.30;;;3.00;86.90;2.10;97592.00;;;;5095991;28;20239;-71
2021/12/11 06:04:23;;;;;;;1.10;1.10;;;2.90;86.70;2.30;97598.00;;;;5095947;28;20644;-71
2021/12/11 06:06:54;;;;;;;1.77;1.67;;;3.10;86.70;2.30;97606.00;;;;5113756;28;20505;-71
2021/12/11 06:09:24;;;;;;;1.37;1.37;;;3.10;86.50;2.50;97615.00;;;;5115128;28;20275;-71
2021/12/11 06:11:57;;;;;;;0.83;0.83;;;3.20;86.00;2.20;97616.00;;;;5117104;28;20288;-71
2021/12/11 06:14:25;;;;;;;1.97;1.77;;;3.10;85.60;2.10;97613.00;;;;5117209;28;20223;-71
2021/12/11 06:16:56;;;;;;;0.87;0.87;;;3.00;86.10;2.10;97614.00;;;;5099020;28;20225;-70
2021/12/11 06:19:25;;;;;;;1.53;1.43;;;3.00;86.30;2.20;97631.00;;;;5099335;28;20201;-71
2021/12/11 06:21:54;;;;;;;1.07;1.07;;;3.00;86.20;2.30;97631.00;;;;5117045;28;20201;-71
2021/12/11 06:24:23;;;;;;;1.50;1.40;;;3.10;86.60;2.30;97629.00;;;;5116912;28;20307;-71
2021/12/11 06:26:51;;;;;;;0.73;0.73;;;3.10;85.80;2.30;97631.00;;;;5116793;28;20287;-70
2021/12/11 06:29:18;;;;;;;1.00;1.00;;;3.10;85.70;2.30;97642.00;;;;5116857;28;20254;-70
2021/12/11 06:31:46;;;;;;;1.17;1.07;;;3.10;86.10;2.40;97644.00;;;;5116870;28;20580;-70
2021/12/11 06:34:13;;;;;;;0.80;0.80;;;3.20;87.00;2.40;97639.00;;;;5116923;28;20272;-70
2021/12/11 06:36:42;;;;;;;1.17;1.17;;;3.20;85.90;2.30;97655.00;;;;5116750;28;20592;-71
2021/12/11 06:39:13;;;;;;;1.10;1.10;;;3.20;86.10;2.30;97667.00;;;;5116664;28;20188;-70
2021/12/11 06:41:43;;;;;;;1.60;1.50;;;3.10;85.60;2.30;97672.00;;;;5098769;28;20263;-70
2021/12/11 06:44:12;;;;;;;1.20;1.20;;;3.20;85.70;2.30;97675.00;;;;5098694;28;20670;-71
2021/12/11 06:46:41;;;;;;;0.80;0.80;;;3.10;86.60;2.30;97678.00;;;;5117032;28;20334;-72
2021/12/11 06:49:10;;;;;;;0.93;0.93;;;3.10;87.80;2.30;97695.00;;;;5116632;28;20663;-71
2021/12/11 06:51:38;;;;;;;1.13;1.13;;;3.10;86.70;2.30;97683.00;;;;5116430;28;20279;-71
2021/12/11 06:54:09;;;;;;;1.03;1.03;;;3.10;86.80;2.30;97693.00;;;;5116534;28;20247;-71
2021/12/11 06:56:40;;;;;;;1.27;1.27;;;3.10;86.60;2.30;97703.00;;;;5116276;28;20270;-71
2021/12/11 06:59:08;;;;;;;1.60;1.50;;;3.20;85.90;2.50;97705.00;;;;5116295;28;20268;-71
2021/12/11 07:01:37;;;;;;;1.63;1.60;;;3.30;85.90;2.40;97713.00;;;;5098326;28;20220;-71
2021/12/11 07:04:11;;;;;;;1.47;1.37;;;3.30;85.30;2.30;97726.00;;;;5116177;28;20285;-71
2021/12/11 07:06:40;;;;;;;1.40;1.30;;;3.20;85.50;2.30;97730.00;;;;5116180;28;20214;-71
2021/12/11 07:09:10;;;;;;;0.90;0.90;;;3.10;85.40;2.40;97742.00;;;;5098268;28;20299;-71
2021/12/11 07:11:43;;;;;;;1.30;1.30;;;3.20;85.60;2.40;97747.00;;;;5116218;28;20201;-71
2021/12/11 07:14:10;;;;;;;1.33;1.33;;;3.20;85.80;2.40;97762.00;;;;5116169;28;20205;-71
2021/12/11 07:16:37;;;;;;;1.17;1.17;;;3.20;86.00;2.40;97748.00;;;;5098058;28;20228;-71
2021/12/11 07:19:09;;;;;;;2.60;1.90;;;3.20;85.30;2.60;97773.00;;;;5115959;28;20228;-71
2021/12/11 07:21:38;;;;;;;1.20;1.20;;;3.30;85.90;2.40;97735.00;;;;5114728;28;20303;-70
2021/12/11 07:24:08;;;;;;;3.60;1.60;;;3.20;85.10;2.40;97782.00;;;;5115766;28;20656;-70
2021/12/11 07:26:36;;;;;;;2.17;1.83;;;3.20;85.10;2.40;97789.00;;;;5115980;28;20197;-70
2021/12/11 07:29:08;;;;;;;1.27;1.27;;;3.20;85.00;2.60;97800.00;;;;5115820;28;20628;-71
2021/12/11 07:31:35;;;;;;;1.40;1.30;;;3.30;85.50;2.40;97796.00;;;;5115830;28;20645;-70
2021/12/11 07:34:02;;;;;;;2.03;1.93;;;3.30;84.60;2.50;97800.00;;;;5115949;28;20194;-70
2021/12/11 07:36:31;;;;;;;1.20;1.10;;;3.30;85.30;2.40;97805.00;;;;5097879;28;20323;-70
2021/12/11 07:39:01;;;;;;;1.07;1.07;;;3.20;84.80;2.40;97819.00;;;;5097827;28;20698;-71
2021/12/11 07:41:27;;;;;;;3.00;1.93;;;3.20;86.00;2.50;97821.00;;;;5115836;28;20350;-72
2021/12/11 07:43:54;;;;;;;1.67;1.43;;;3.20;85.30;2.30;97833.00;;;;5097723;28;20244;-70
2021/12/11 07:46:27;;;;;;;1.90;1.57;;;3.20;84.70;2.30;97838.00;;;;5115550;28;20224;-70
2021/12/11 07:48:57;;;;;;;1.03;1.03;;;3.20;85.30;2.20;97846.00;;;;5115374;28;20201;-71
2021/12/11 07:51:28;;;;;;;2.23;1.80;;;3.00;85.70;2.20;97853.00;;;;5097541;28;20242;-71
2021/12/11 07:53:56;;;;;;;1.37;1.37;;;3.10;86.00;2.10;97849.00;;;;5115412;28;20278;-71
2021/12/11 07:56:25;;;;;;;2.40;2.23;;;3.00;85.80;2.20;97873.00;;;;5097340;28;20221;-72
2021/12/11 07:58:59;;;;;;;2.23;2.07;;;3.10;86.40;2.20;97876.00;;;;5097399;28;20754;-71
2021/12/11 08:01:26;;;;;;;1.60;1.57;;;3.10;85.90;2.30;97874.00;;;;5115187;28;20280;-71
2021/12/11 08:03:57;;;;;;;1.57;1.50;;;3.10;85.60;2.40;97889.00;;;;5115320;28;20275;-71
2021/12/11 08:06:24;;;;;;;2.73;1.37;;;3.10;85.30;2.40;97895.00;;;;5115404;28;20225;-70
2021/12/11 08:08:51;;;;;;;1.80;1.70;;;3.20;84.80;2.30;97897.00;;;;5115589;28;20260;-71
2021/12/11 08:11:21;;;;;;;1.77;1.67;;;3.10;84.80;2.30;97899.00;;;;5115207;28;20201;-71
2021/12/11 08:13:51;;;;;;;1.30;1.30;;;3.10;85.10;2.30;97907.00;;;;5115275;28;20283;-70
2021/12/11 08:16:24;;;;;;;1.10;1.10;;;3.20;85.30;2.30;97908.00;;;;5115281;28;20285;-70
2021/12/11 08:18:53;;;;;;;1.93;1.83;;;3.20;85.50;2.50;97920.00;;;;5114985;28;20252;-70
2021/12/11 08:21:20;;;;;;;2.73;1.87;;;3.20;86.20;2.20;97919.00;;;;5115051;28;20193;-70
2021/12/11 08:23:53;;;;;;;2.07;1.87;;;3.20;84.80;2.40;97920.00;;;;5114920;28;20279;-70
2021/12/11 08:26:22;;;;;;;1.93;1.83;;;3.30;85.40;2.40;97933.00;;;;5115034;28;20184;-70
2021/12/11 08:28:51;;;;;;;2.13;2.00;;;3.20;85.10;2.40;97933.00;;;;5097260;28;20600;-70
2021/12/11 08:31:18;;;;;;;1.60;1.50;;;3.20;85.00;2.30;97938.00;;;;5114373;28;20638;-71
2021/12/11 08:33:45;;;;;;;1.27;1.23;;;3.20;85.30;2.40;97943.00;;;;5114733;28;20205;-70
2021/12/11 08:36:13;;;;;;;2.30;2.13;;;3.20;85.50;2.50;97943.00;;;;5114788;28;20266;-70
2021/12/11 08:38:41;;;;;;;1.63;1.53;;;3.30;85.70;2.60;97943.00;;;;5114727;28;20304;-70
2021/12/11 08:41:11;;;;;;;1.83;1.57;;;3.40;85.30;2.60;97951.00;;;;5114594;28;20192;-70
2021/12/11 08:43:42;;;;;;;2.73;2.27;;;3.40;84.70;2.80;97962.00;;;;5114732;28;20190;-71
2021/12/11 08:46:14;;;;;;;2.27;2.07;;;3.50;84.80;2.60;97954.00;;;;5096631;28;20226;-70
2021/12/11 08:48:46;;;;;;;2.17;2.07;;;3.50;84.00;2.60;97965.00;;;;5114719;28;20265;-71
2021/12/11 08:51:19;;;;;;;3.53;1.93;;;3.40;84.30;2.70;97977.00;;;;5114430;28;20224;-70
2021/12/11 08:53:47;;;;;;;2.53;2.13;;;3.40;84.40;2.90;97984.00;;;;5114630;28;20225;-70
2021/12/11 08:56:19;;;;;;;9.00;2.90;;;3.60;83.60;2.80;97978.00;;;;5114377;28;20718;-70
2021/12/11 08:58:49;;;;;;;2.03;1.90;;;3.60;83.10;2.90;97995.00;;;;5114471;28;20240;-71
2021/12/11 09:01:24;;;;;;;1.93;1.83;;;3.60;82.90;2.80;97993.00;;;;5114507;28;20280;-70
2021/12/11 09:03:57;;;;;;;2.30;2.20;;;3.60;82.70;2.90;98005.00;;;;5114422;28;20717;-71
2021/12/11 09:06:35;;;;;;;1.20;1.10;;;3.60;83.20;3.00;98003.00;;;;5114418;28;20662;-70
2021/12/11 09:09:10;;;;;;;1.20;1.20;;;3.70;83.40;2.90;98014.00;;;;5114264;28;20217;-70
2021/12/11 09:11:45;;;;;;;1.00;1.00;;;3.80;81.30;2.90;98011.00;;;;5114468;28;20287;-72
2021/12/11 09:14:17;;;;;;;1.17;1.17;;;3.80;81.80;3.00;98011.00;;;;5114137;28;20591;-71
2021/12/11 09:16:52;;;;;;;2.40;1.57;;;3.80;81.70;3.10;98028.00;;;;5114256;28;20295;-72
2021/12/11 09:19:28;;;;;;;1.00;1.00;;;3.80;82.00;3.20;98024.00;;;;5096139;28;20236;-71
2021/12/11 09:22:06;;;;;;;1.10;1.10;;;4.00;81.10;3.20;98033.00;;;;5114164;28;20197;-71
2021/12/11 09:24:42;;;;;;;1.30;1.20;;;3.90;81.30;3.20;98043.00;;;;5096021;28;20233;-71
2021/12/11 09:27:17;;;;;;;1.00;1.00;;;4.00;80.10;3.20;98043.00;;;;5096268;28;20194;-70
2021/12/11 09:29:51;;;;;;;1.50;1.43;;;4.00;80.10;3.10;98042.00;;;;5114074;28;20304;-71
2021/12/11 09:32:25;;;;;;;1.43;1.37;;;4.00;79.90;3.20;98050.00;;;;5114116;28;20259;-71
2021/12/11 09:34:58;;;;;;;1.20;1.20;;;4.10;80.00;3.20;98050.00;;;;5114057;28;20253;-71
2021/12/11 09:37:27;;;;;;;1.57;1.47;;;4.00;79.70;3.00;98047.00;;;;5113897;28;20232;-71
2021/12/11 09:40:03;;;;;;;0.70;0.70;;;3.80;80.80;3.20;98058.00;;;;5096282;28;20575;-71
2021/12/11 09:42:29;;;;;;;1.17;1.17;;;3.90;80.50;3.30;98052.00;;;;5113695;28;20241;-70
2021/12/11 09:45:03;;;;;;;1.80;1.70;;;4.10;80.00;3.30;98067.00;;;;5116140;28;20631;-70
2021/12/11 09:47:36;;;;;;;1.63;1.53;;;4.10;79.50;3.50;98064.00;;;;5099475;28;20350;-71
2021/12/11 09:50:11;;;;;;;2.03;1.70;;;4.20;79.40;3.50;98072.00;;;;5117450;28;20215;-71
2021/12/11 09:52:41;;;;;;;1.47;1.47;;;4.30;78.10;3.60;98079.00;;;;5117326;28;20675;-71
2021/12/11 09:55:17;;;;;;;1.17;1.17;;;4.30;78.90;3.60;98080.00;;;;5099316;28;20231;-71
2021/12/11 09:57:51;;;;;;;0.80;0.80;;;4.30;78.40;3.70;98091.00;;;;5117231;28;20218;-71
2021/12/11 10:00:25;;;;;;;0.67;0.67;;;4.40;77.50;3.60;98086.00;;;;5099226;28;20640;-71
2021/12/11 10:02:52;;;;;;;1.43;1.33;;;4.40;77.40;3.60;98095.00;;;;5117033;28;20224;-72
2021/12/11 10:05:30;;;;;;;0.80;0.80;;;4.40;78.00;3.70;98101.00;;;;5099252;28;20198;-74
2021/12/11 10:08:24;;;;;;;1.00;1.00;;;4.50;77.80;3.50;98096.00;;;;5099117;28;20225;-71
2021/12/11 10:10:54;;;;;;;1.13;1.13;;;4.40;77.00;3.60;98097.00;;;;5117081;28;20206;-72
2021/12/11 10:13:21;;;;;;;0.77;0.77;;;4.40;77.20;3.80;98100.00;;;;5116906;28;20574;-73
2021/12/11 10:15:49;;;;;;;1.27;1.27;;;4.50;76.60;4.00;98102.00;;;;5117065;28;20617;-71
2021/12/11 10:18:20;;;;;;;0.80;0.80;;;4.70;77.00;3.90;98096.00;;;;5116739;28;20249;-71
2021/12/11 10:20:53;;;;;;;1.40;1.30;;;4.70;76.00;3.90;98113.00;;;;5117022;28;20199;-71
2021/12/11 10:23:24;;;;;;;1.80;1.63;;;4.60;75.70;3.70;98118.00;;;;5116827;28;20205;-71
2021/12/11 10:25:51;;;;;;;1.50;1.43;;;4.60;74.10;3.80;98113.00;;;;5115903;28;20214;-71
2021/12/11 10:28:23;;;;;;;1.57;1.47;;;4.60;76.30;3.70;98118.00;;;;5116563;28;20194;-71
2021/12/11 10:30:59;;;;;;;2.30;2.10;;;4.50;75.10;3.70;98119.00;;;;5116847;28;20194;-71
2021/12/11 10:33:31;;;;;;;1.13;1.13;;;4.50;75.20;3.80;98092.00;;;;5116616;28;20263;-71
2021/12/11 10:36:07;;;;;;;1.27;1.27;;;4.60;75.30;3.80;98122.00;;;;5116787;28;20311;-71
2021/12/11 10:38:34;;;;;;;1.50;1.40;;;4.50;75.80;3.80;98123.00;;;;5116624;28;20210;-71
2021/12/11 10:41:06;;;;;;;1.07;1.07;;;4.60;76.50;3.70;98126.00;;;;5116810;28;20516;-70
2021/12/11 10:43:39;;;;;;;1.20;1.20;;;4.60;75.80;3.80;98126.00;;;;5098572;28;20233;-71
2021/12/11 10:46:07;;;;;;;0.90;0.90;;;4.60;75.00;3.70;98080.00;;;;5116829;28;20632;-72
2021/12/11 10:48:37;;;;;;;1.50;1.43;;;4.50;76.40;3.60;98141.00;;;;5116453;28;20545;-72
2021/12/11 10:51:10;;;;;;;1.23;1.13;;;4.40;75.30;3.70;98133.00;;;;5116564;28;20191;-72
2021/12/11 10:53:42;;;;;;;1.93;1.40;;;4.40;76.00;3.60;98141.00;;;;5116523;28;20212;-72
2021/12/11 10:56:14;;;;;;;1.27;1.23;;;4.40;75.10;3.50;98144.00;;;;5116246;28;20681;-73
2021/12/11 10:58:48;;;;;;;1.90;1.77;;;4.40;75.50;3.30;98148.00;;;;5116394;28;20236;-73
2021/12/11 11:01:24;;;;;;;1.17;1.13;;;4.30;74.90;3.50;98153.00;;;;5116470;28;20194;-74
2021/12/11 11:03:56;;;;;;;0.93;0.93;;;4.30;75.50;3.60;98165.00;;;;5098536;28;20749;-73
2021/12/11 11:06:23;;;;;;;0.80;0.80;;;4.40;75.90;3.70;98160.00;;;;5116407;28;20194;-72
2021/12/11 11:08:53;;;;;;;1.17;1.17;;;4.50;75.80;3.70;98144.00;;;;5116234;28;20664;-72
2021/12/11 11:11:28;;;;;;;2.33;2.13;;;4.50;75.10;3.60;98163.00;;;;5116552;28;20694;-72
2021/12/11 11:13:56;;;;;;;1.97;1.60;;;4.50;75.50;3.70;98167.00;;;;5116361;28;20286;-72
2021/12/11 11:16:24;;;;;;;1.23;1.23;;;4.50;74.70;3.80;98169.00;;;;5115997;28;20245;-72
2021/12/11 11:18:51;;;;;;;1.53;1.43;;;4.50;75.10;3.60;98156.00;;;;5098112;28;20676;-73
2021/12/11 11:21:22;;;;;;;0.60;0.60;;;4.40;74.00;3.50;98176.00;;;;5115982;28;20252;-74
2021/12/11 11:23:50;;;;;;;0.80;0.80;;;4.40;74.60;3.50;98184.00;;;;5116046;28;20208;-75
2021/12/11 11:26:22;;;;;;;1.73;1.03;;;4.40;75.70;3.70;98185.00;;;;5115695;28;20320;-73
2021/12/11 11:28:49;;;;;;;1.03;1.03;;;;;3.80;98190.00;;;;5115844;28;20217;-74
2021/12/11 11:31:22;;;;;;;1.17;1.17;;;4.50;73.60;3.70;98197.00;;;;5115734;28;20301;-73
2021/12/11 11:33:50;;;;;;;1.20;1.20;;;4.50;74.80;3.60;98200.00;;;;5115930;28;20303;-73